Time;durP1;ratioP1;P1;durP2;ratioP2;P2;SDS_P1;SDS_P2;PMS_P1;PMS_P2;Temp;Humidity;BMP_temperature;BMP_pressure;BME280_temperature;BME280_humidity;BME280_pressure;Samples;Min_cycle;Max_cycle;Signal;HPM_P1;HPM_P2
2023/12/01 00:00:18;;;;;;;38.87;20.30;;;;;;;;;;689454;28;1267;-69
2023/12/01 00:00:39;;;;;;;37.97;19.80;;;;;;;;;;690454;28;1319;-69
2023/12/01 00:01:00;;;;;;;39.22;20.05;;;;;;;;;;691006;28;1223;-69
2023/12/01 00:01:20;;;;;;;39.13;20.03;;;;;;;;;;689981;28;1282;-68
2023/12/01 00:01:40;;;;;;;38.40;19.70;;;;;;;;;;687670;28;4227;-69
2023/12/01 00:02:01;;;;;;;37.42;19.40;;;;;;;;;;690140;28;1294;-68
2023/12/01 00:02:21;;;;;;;38.97;19.07;;;;;;;;;;690587;28;1358;-68
2023/12/01 00:02:41;;;;;;;41.05;20.23;;;;;;;;;;689511;28;1972;-68
2023/12/01 00:03:03;;;;;;;39.60;19.80;;;;;;;;;;690312;28;1247;-68
2023/12/01 00:03:23;;;;;;;41.40;20.77;;;;;;;;;;689311;28;1247;-68
2023/12/01 00:03:43;;;;;;;42.73;20.77;;;;;;;;;;688741;28;5909;-68
2023/12/01 00:04:04;;;;;;;40.13;20.20;;;;;;;;;;686776;28;1472;-69
2023/12/01 00:04:24;;;;;;;37.70;19.57;;;;;;;;;;686295;28;1406;-69
2023/12/01 00:04:45;;;;;;;37.58;19.60;;;;;;;;;;684825;28;4245;-68
2023/12/01 00:05:06;;;;;;;40.13;19.97;;;;;;;;;;685765;28;1212;-68
2023/12/01 00:05:26;;;;;;;40.05;19.90;;;;;;;;;;683957;28;1256;-68
2023/12/01 00:05:47;;;;;;;39.63;20.40;;;;;;;;;;683219;28;2451;-68
2023/12/01 00:06:07;;;;;;;38.83;20.17;;;;;;;;;;686642;28;1303;-69
2023/12/01 00:06:29;;;;;;;38.75;20.23;;;;;;;;;;689031;28;824;-68
2023/12/01 00:06:50;;;;;;;36.65;19.35;;;;;;;;;;688370;28;1907;-69
2023/12/01 00:07:11;;;;;;;38.45;20.25;;;;;;;;;;687144;28;1354;-69
2023/12/01 00:07:33;;;;;;;38.85;19.92;;;;;;;;;;689653;28;3789;-68
2023/12/01 00:07:54;;;;;;;42.30;20.42;;;;;;;;;;688318;28;4224;-68
2023/12/01 00:08:15;;;;;;;44.25;21.40;;;;;;;;;;689708;28;1264;-68
2023/12/01 00:08:35;;;;;;;41.67;21.02;;;;;;;;;;689998;28;1373;-69
2023/12/01 00:08:56;;;;;;;41.30;20.70;;;;;;;;;;688214;28;1677;-69
2023/12/01 00:09:17;;;;;;;42.42;20.80;;;;;;;;;;690151;28;1363;-69
2023/12/01 00:09:37;;;;;;;40.97;20.50;;;;;;;;;;690585;28;1191;-69
2023/12/01 00:09:58;;;;;;;43.08;20.40;;;;;;;;;;689637;28;1865;-69
2023/12/01 00:10:18;;;;;;;41.63;20.23;;;;;;;;;;689555;28;1125;-69
2023/12/01 00:10:38;;;;;;;44.13;20.90;;;;;;;;;;689878;28;4415;-69
2023/12/01 00:10:58;;;;;;;41.13;20.50;;;;;;;;;;689071;28;1759;-69
2023/12/01 00:11:20;;;;;;;40.63;20.00;;;;;;;;;;690155;28;1283;-69
2023/12/01 00:11:40;;;;;;;39.60;20.48;;;;;;;;;;689691;28;1410;-70
2023/12/01 00:12:00;;;;;;;42.87;21.13;;;;;;;;;;688763;28;1298;-69
2023/12/01 00:12:20;;;;;;;41.88;20.30;;;;;;;;;;689489;28;1248;-69
2023/12/01 00:12:41;;;;;;;41.17;20.20;;;;;;;;;;689415;28;1866;-69
2023/12/01 00:13:02;;;;;;;39.05;20.20;;;;;;;;;;690097;28;1311;-69
2023/12/01 00:13:22;;;;;;;38.35;20.00;;;;;;;;;;689982;28;1405;-69
2023/12/01 00:13:42;;;;;;;40.80;20.50;;;;;;;;;;687189;28;4362;-69
2023/12/01 00:14:03;;;;;;;40.73;20.60;;;;;;;;;;690535;28;1346;-68
2023/12/01 00:14:23;;;;;;;42.88;20.45;;;;;;;;;;689636;28;1570;-68
2023/12/01 00:14:43;;;;;;;40.13;20.03;;;;;;;;;;689285;28;1917;-69
2023/12/01 00:15:04;;;;;;;40.27;20.47;;;;;;;;;;686912;28;2581;-69
2023/12/01 00:15:24;;;;;;;40.58;21.15;;;;;;;;;;684671;28;1237;-69
2023/12/01 00:15:44;;;;;;;41.27;20.27;;;;;;;;;;683326;28;1371;-69
2023/12/01 00:16:05;;;;;;;39.67;20.25;;;;;;;;;;684797;28;1501;-68
2023/12/01 00:16:26;;;;;;;40.47;20.47;;;;;;;;;;687250;28;1337;-68
2023/12/01 00:16:47;;;;;;;40.70;21.23;;;;;;;;;;685711;28;4433;-69
2023/12/01 00:17:07;;;;;;;40.43;20.93;;;;;;;;;;687554;28;1177;-69
2023/12/01 00:17:27;;;;;;;39.10;20.35;;;;;;;;;;689320;28;1345;-69
2023/12/01 00:17:48;;;;;;;38.70;19.90;;;;;;;;;;687549;28;1910;-69
2023/12/01 00:18:08;;;;;;;40.97;20.57;;;;;;;;;;689429;28;1267;-69
2023/12/01 00:18:28;;;;;;;38.53;19.87;;;;;;;;;;689417;28;1326;-69
2023/12/01 00:18:48;;;;;;;38.57;20.47;;;;;;;;;;687633;28;2324;-73
2023/12/01 00:19:08;;;;;;;38.07;20.27;;;;;;;;;;689295;28;1101;-69
2023/12/01 00:19:29;;;;;;;39.13;19.90;;;;;;;;;;689548;28;1240;-69
2023/12/01 00:19:49;;;;;;;37.33;19.55;;;;;;;;;;688049;28;4297;-69
2023/12/01 00:20:09;;;;;;;38.47;19.37;;;;;;;;;;689661;28;1251;-68
2023/12/01 00:20:31;;;;;;;38.50;20.07;;;;;;;;;;688508;28;1152;-69
2023/12/01 00:20:51;;;;;;;39.45;20.23;;;;;;;;;;687718;28;1183;-69
2023/12/01 00:21:11;;;;;;;37.03;20.23;;;;;;;;;;689780;28;1389;-71
2023/12/01 00:21:32;;;;;;;36.92;19.92;;;;;;;;;;689843;28;1240;-69
2023/12/01 00:21:52;;;;;;;38.60;19.27;;;;;;;;;;688252;28;1995;-69
2023/12/01 00:22:12;;;;;;;35.53;18.60;;;;;;;;;;689268;28;1242;-69
2023/12/01 00:22:32;;;;;;;37.13;19.38;;;;;;;;;;689975;28;1354;-68
2023/12/01 00:22:53;;;;;;;38.30;20.10;;;;;;;;;;687693;28;4300;-68
2023/12/01 00:23:13;;;;;;;36.60;20.07;;;;;;;;;;692028;28;1478;-69
2023/12/01 00:23:33;;;;;;;37.22;19.63;;;;;;;;;;692703;28;1277;-69
2023/12/01 00:23:54;;;;;;;35.37;18.50;;;;;;;;;;690830;28;1814;-69
2023/12/01 00:24:14;;;;;;;36.25;18.90;;;;;;;;;;688676;28;1208;-69
2023/12/01 00:24:35;;;;;;;38.87;20.23;;;;;;;;;;689712;28;1315;-68
2023/12/01 00:24:55;;;;;;;37.67;20.03;;;;;;;;;;687927;28;1694;-69
2023/12/01 00:25:15;;;;;;;37.27;19.93;;;;;;;;;;688803;28;1303;-68
2023/12/01 00:25:35;;;;;;;38.63;19.53;;;;;;;;;;687923;28;4282;-69
2023/12/01 00:25:56;;;;;;;40.03;19.73;;;;;;;;;;689041;28;1791;-69
2023/12/01 00:26:16;;;;;;;40.60;20.35;;;;;;;;;;687641;28;1373;-69
2023/12/01 00:26:41;;;;;;;39.63;19.92;;;;;;;;;;687512;28;1282;-69
2023/12/01 00:27:01;;;;;;;36.87;19.63;;;;;;;;;;689001;28;1050;-69
2023/12/01 00:27:21;;;;;;;40.33;20.50;;;;;;;;;;689310;28;1322;-69
2023/12/01 00:27:42;;;;;;;38.17;19.55;;;;;;;;;;683202;28;1339;-69
2023/12/01 00:28:02;;;;;;;38.43;19.33;;;;;;;;;;684330;28;1240;-69
2023/12/01 00:28:24;;;;;;;37.80;18.50;;;;;;;;;;684462;28;1379;-69
2023/12/01 00:28:44;;;;;;;40.33;20.15;;;;;;;;;;681603;28;4309;-69
2023/12/01 00:29:04;;;;;;;38.80;20.27;;;;;;;;;;682501;28;1291;-69
2023/12/01 00:29:25;;;;;;;34.90;18.97;;;;;;;;;;684591;28;1335;-69
2023/12/01 00:29:45;;;;;;;35.15;18.90;;;;;;;;;;686579;28;1859;-69
2023/12/01 00:30:06;;;;;;;36.57;19.87;;;;;;;;;;689494;28;1469;-69
2023/12/01 00:30:29;;;;;;;36.42;20.70;;;;;;;;;;686634;28;1322;-69
2023/12/01 00:30:49;;;;;;;38.55;20.90;;;;;;;;;;682797;28;1803;-69
2023/12/01 00:31:10;;;;;;;37.80;19.83;;;;;;;;;;683838;28;1373;-68
2023/12/01 00:31:30;;;;;;;39.17;20.57;;;;;;;;;;681423;28;1740;-69
2023/12/01 00:31:52;;;;;;;39.37;20.50;;;;;;;;;;680086;28;4235;-69
2023/12/01 00:32:13;;;;;;;37.80;19.40;;;;;;;;;;680943;28;1226;-69
2023/12/01 00:32:33;;;;;;;38.87;20.07;;;;;;;;;;683656;28;1106;-69
2023/12/01 00:32:53;;;;;;;38.93;20.93;;;;;;;;;;685933;28;2137;-68
2023/12/01 00:33:14;;;;;;;37.63;19.90;;;;;;;;;;686893;28;1179;-68
2023/12/01 00:33:34;;;;;;;37.80;19.70;;;;;;;;;;689594;28;1243;-68
2023/12/01 00:33:54;;;;;;;41.50;20.30;;;;;;;;;;686177;28;1540;-69
2023/12/01 00:34:14;;;;;;;38.37;19.30;;;;;;;;;;689977;28;1235;-69
2023/12/01 00:34:35;;;;;;;37.50;19.73;;;;;;;;;;688293;28;4385;-68
2023/12/01 00:34:55;;;;;;;38.93;20.60;;;;;;;;;;688852;28;1922;-69
2023/12/01 00:35:15;;;;;;;38.77;20.20;;;;;;;;;;689187;28;1318;-68
2023/12/01 00:35:35;;;;;;;40.10;20.27;;;;;;;;;;689443;28;1338;-68
2023/12/01 00:35:56;;;;;;;37.23;19.30;;;;;;;;;;685621;28;1934;-68
2023/12/01 00:36:16;;;;;;;38.45;20.20;;;;;;;;;;683527;28;1292;-69
2023/12/01 00:36:36;;;;;;;38.93;20.03;;;;;;;;;;684295;28;1315;-69
2023/12/01 00:36:57;;;;;;;37.63;20.10;;;;;;;;;;683211;28;1711;-69
2023/12/01 00:37:17;;;;;;;39.07;20.67;;;;;;;;;;685282;28;1199;-68
2023/12/01 00:37:37;;;;;;;38.37;20.90;;;;;;;;;;683301;28;4445;-69
2023/12/01 00:37:58;;;;;;;37.55;20.10;;;;;;;;;;682864;28;1800;-69
2023/12/01 00:38:19;;;;;;;35.93;19.57;;;;;;;;;;684517;28;1336;-69
2023/12/01 00:38:39;;;;;;;38.40;20.02;;;;;;;;;;683986;28;1228;-68
2023/12/01 00:39:00;;;;;;;38.70;19.98;;;;;;;;;;683875;28;1458;-68
2023/12/01 00:39:20;;;;;;;38.03;19.67;;;;;;;;;;683958;28;1209;-69
2023/12/01 00:39:40;;;;;;;35.55;19.25;;;;;;;;;;684216;28;1343;-69
2023/12/01 00:40:01;;;;;;;36.43;19.33;;;;;;;;;;683067;28;1811;-68
2023/12/01 00:40:21;;;;;;;38.03;20.17;;;;;;;;;;684451;28;1252;-69
2023/12/01 00:40:41;;;;;;;38.70;19.70;;;;;;;;;;683590;28;4613;-69
2023/12/01 00:41:02;;;;;;;40.53;20.50;;;;;;;;;;681589;28;1181;-68
2023/12/01 00:41:22;;;;;;;39.42;20.33;;;;;;;;;;683377;28;1225;-68
2023/12/01 00:41:42;;;;;;;38.93;19.77;;;;;;;;;;684581;28;2485;-68
2023/12/01 00:42:03;;;;;;;39.00;20.40;;;;;;;;;;689995;28;1366;-69
2023/12/01 00:42:23;;;;;;;39.67;20.77;;;;;;;;;;690019;28;1255;-69
2023/12/01 00:42:43;;;;;;;39.35;20.48;;;;;;;;;;688461;28;2516;-69
2023/12/01 00:43:04;;;;;;;39.47;20.80;;;;;;;;;;686668;28;1534;-69
2023/12/01 00:43:25;;;;;;;39.40;20.53;;;;;;;;;;687058;28;1394;-69
2023/12/01 00:43:45;;;;;;;39.88;20.77;;;;;;;;;;687739;28;4280;-68
2023/12/01 00:44:06;;;;;;;39.47;21.07;;;;;;;;;;689027;28;1235;-69
2023/12/01 00:44:26;;;;;;;39.50;20.50;;;;;;;;;;689439;28;1338;-69
2023/12/01 00:44:46;;;;;;;39.38;19.90;;;;;;;;;;687662;28;2574;-69
2023/12/01 00:45:07;;;;;;;38.77;20.17;;;;;;;;;;687032;28;1279;-69
2023/12/01 00:45:27;;;;;;;35.55;20.60;;;;;;;;;;689691;28;1270;-69
2023/12/01 00:45:47;;;;;;;37.10;20.30;;;;;;;;;;685263;28;1445;-69
2023/12/01 00:46:08;;;;;;;40.20;20.80;;;;;;;;;;687139;28;1374;-69
2023/12/01 00:46:28;;;;;;;40.07;20.47;;;;;;;;;;684300;28;1250;-69
2023/12/01 00:46:48;;;;;;;38.30;19.97;;;;;;;;;;682816;28;4225;-69
2023/12/01 00:47:09;;;;;;;40.20;20.90;;;;;;;;;;684190;28;1284;-69
2023/12/01 00:47:29;;;;;;;39.97;20.77;;;;;;;;;;685805;28;1374;-69
2023/12/01 00:47:49;;;;;;;40.73;20.93;;;;;;;;;;684301;28;1775;-69
2023/12/01 00:48:09;;;;;;;40.35;20.35;;;;;;;;;;685828;28;1324;-69
2023/12/01 00:48:30;;;;;;;41.17;19.70;;;;;;;;;;686523;28;1378;-69
2023/12/01 00:48:51;;;;;;;40.97;20.00;;;;;;;;;;686418;28;2223;-69
2023/12/01 00:49:14;;;;;;;38.63;20.50;;;;;;;;;;686629;28;1613;-69
2023/12/01 00:49:34;;;;;;;39.25;21.00;;;;;;;;;;686797;28;1339;-69
2023/12/01 00:49:54;;;;;;;38.43;20.77;;;;;;;;;;684868;28;4393;-69
2023/12/01 00:50:15;;;;;;;40.23;20.70;;;;;;;;;;687062;28;1295;-69
2023/12/01 00:50:35;;;;;;;40.83;20.67;;;;;;;;;;682940;28;1347;-69
2023/12/01 00:50:55;;;;;;;41.93;21.23;;;;;;;;;;684604;28;1516;-69
2023/12/01 00:51:16;;;;;;;41.80;21.20;;;;;;;;;;685837;28;1457;-69
2023/12/01 00:51:37;;;;;;;42.33;20.98;;;;;;;;;;686455;28;1357;-69
2023/12/01 00:51:57;;;;;;;41.30;20.83;;;;;;;;;;682300;28;1803;-69
2023/12/01 00:52:17;;;;;;;42.90;21.83;;;;;;;;;;683322;28;1197;-69
2023/12/01 00:52:38;;;;;;;42.22;20.90;;;;;;;;;;685892;28;4286;-69
2023/12/01 00:52:58;;;;;;;42.67;20.57;;;;;;;;;;686575;28;2233;-69
2023/12/01 00:53:18;;;;;;;41.08;20.77;;;;;;;;;;689547;28;1111;-69
2023/12/01 00:53:38;;;;;;;39.57;20.57;;;;;;;;;;689485;28;1339;-68
2023/12/01 00:53:59;;;;;;;40.57;20.37;;;;;;;;;;688225;28;1818;-68
2023/12/01 00:54:19;;;;;;;42.87;20.70;;;;;;;;;;689899;28;1306;-68
2023/12/01 00:54:39;;;;;;;42.72;20.55;;;;;;;;;;690068;28;1302;-69
2023/12/01 00:55:00;;;;;;;42.40;20.57;;;;;;;;;;686164;28;1164;-69
2023/12/01 00:55:20;;;;;;;41.15;21.02;;;;;;;;;;686673;28;1486;-69
2023/12/01 00:55:40;;;;;;;39.47;20.17;;;;;;;;;;686311;28;4258;-69
2023/12/01 00:56:00;;;;;;;39.80;20.10;;;;;;;;;;685970;28;2731;-69
2023/12/01 00:56:21;;;;;;;41.33;20.90;;;;;;;;;;687141;28;1231;-69
2023/12/01 00:56:41;;;;;;;41.37;20.63;;;;;;;;;;685471;28;1236;-69
2023/12/01 00:57:02;;;;;;;43.03;21.37;;;;;;;;;;683281;28;2566;-69
2023/12/01 00:57:22;;;;;;;45.17;21.38;;;;;;;;;;686610;28;1276;-69
2023/12/01 00:57:43;;;;;;;41.47;20.23;;;;;;;;;;683976;28;1372;-69
2023/12/01 00:58:03;;;;;;;43.50;20.83;;;;;;;;;;683979;28;1423;-69
2023/12/01 00:58:24;;;;;;;42.97;21.58;;;;;;;;;;684397;28;1232;-69
2023/12/01 00:58:44;;;;;;;43.10;21.67;;;;;;;;;;683226;28;4317;-69
2023/12/01 00:59:05;;;;;;;43.40;21.57;;;;;;;;;;682187;28;1465;-69
2023/12/01 00:59:25;;;;;;;41.17;21.17;;;;;;;;;;682852;28;1407;-69
2023/12/01 00:59:45;;;;;;;39.58;20.85;;;;;;;;;;681772;28;1787;-69
2023/12/01 01:00:06;;;;;;;39.63;20.60;;;;;;;;;;682773;28;1474;-69
2023/12/01 01:00:26;;;;;;;40.28;21.17;;;;;;;;;;685996;28;1366;-69
2023/12/01 01:00:46;;;;;;;40.83;21.70;;;;;;;;;;683240;28;1987;-68
2023/12/01 01:01:07;;;;;;;38.30;20.30;;;;;;;;;;684425;28;1691;-69
2023/12/01 01:01:27;;;;;;;40.70;20.33;;;;;;;;;;680178;28;1246;-69
2023/12/01 01:01:47;;;;;;;38.70;21.10;;;;;;;;;;682386;28;4415;-69
2023/12/01 01:02:10;;;;;;;42.67;22.20;;;;;;;;;;682578;28;1296;-69
2023/12/01 01:02:31;;;;;;;41.35;21.45;;;;;;;;;;683476;28;1035;-69
2023/12/01 01:02:51;;;;;;;39.53;20.90;;;;;;;;;;683540;28;1918;-69
2023/12/01 01:03:11;;;;;;;38.15;20.88;;;;;;;;;;688269;28;1313;-69
2023/12/01 01:03:32;;;;;;;39.50;21.33;;;;;;;;;;688671;28;1546;-69
2023/12/01 01:03:53;;;;;;;40.33;21.42;;;;;;;;;;686309;28;5464;-69
2023/12/01 01:04:13;;;;;;;40.60;21.03;;;;;;;;;;689268;28;1244;-69
2023/12/01 01:04:33;;;;;;;39.08;20.60;;;;;;;;;;689690;28;1401;-69
2023/12/01 01:04:53;;;;;;;36.17;19.57;;;;;;;;;;684974;28;4403;-69
2023/12/01 01:05:14;;;;;;;37.87;20.20;;;;;;;;;;686780;28;1050;-69
2023/12/01 01:05:34;;;;;;;37.20;19.93;;;;;;;;;;684376;28;1198;-69
2023/12/01 01:05:54;;;;;;;40.37;21.47;;;;;;;;;;683494;28;1752;-69
2023/12/01 01:06:14;;;;;;;42.23;22.30;;;;;;;;;;684227;28;1285;-69
2023/12/01 01:06:35;;;;;;;39.30;21.13;;;;;;;;;;683475;28;1311;-69
2023/12/01 01:06:55;;;;;;;36.83;19.87;;;;;;;;;;685997;28;1604;-69
2023/12/01 01:07:15;;;;;;;36.83;19.47;;;;;;;;;;684079;28;1216;-69
2023/12/01 01:07:35;;;;;;;37.80;19.93;;;;;;;;;;685492;28;4423;-69
2023/12/01 01:07:56;;;;;;;36.35;19.85;;;;;;;;;;686982;28;2125;-69
2023/12/01 01:08:16;;;;;;;39.37;20.77;;;;;;;;;;686169;28;1382;-69
2023/12/01 01:08:36;;;;;;;36.50;20.20;;;;;;;;;;686143;28;1365;-68
2023/12/01 01:08:56;;;;;;;36.28;20.23;;;;;;;;;;685662;28;1568;-68
2023/12/01 01:09:17;;;;;;;37.73;20.33;;;;;;;;;;688009;28;1164;-69
2023/12/01 01:09:37;;;;;;;38.77;20.83;;;;;;;;;;686357;28;1260;-69
2023/12/01 01:09:57;;;;;;;37.95;20.10;;;;;;;;;;685503;28;1221;-68
2023/12/01 01:10:17;;;;;;;36.13;19.70;;;;;;;;;;688799;28;1046;-69
2023/12/01 01:10:38;;;;;;;36.93;20.63;;;;;;;;;;685985;28;4473;-69
2023/12/01 01:10:58;;;;;;;38.13;20.83;;;;;;;;;;686089;28;2248;-69
2023/12/01 01:11:19;;;;;;;37.90;21.17;;;;;;;;;;683776;28;2613;-69
2023/12/01 01:11:39;;;;;;;38.83;20.90;;;;;;;;;;686055;28;1300;-69
2023/12/01 01:12:01;;;;;;;38.30;20.57;;;;;;;;;;684125;28;1176;-69
2023/12/01 01:12:21;;;;;;;38.20;20.42;;;;;;;;;;684778;28;1295;-69
2023/12/01 01:12:42;;;;;;;39.42;20.15;;;;;;;;;;682683;28;1299;-69
2023/12/01 01:13:02;;;;;;;40.13;20.27;;;;;;;;;;683825;28;1455;-69
2023/12/01 01:13:25;;;;;;;39.67;20.73;;;;;;;;;;682916;28;1392;-69
2023/12/01 01:13:45;;;;;;;39.80;21.17;;;;;;;;;;683350;28;4253;-69
2023/12/01 01:14:05;;;;;;;37.85;20.42;;;;;;;;;;686852;28;1227;-69
2023/12/01 01:14:26;;;;;;;37.43;20.50;;;;;;;;;;684830;28;1161;-69
2023/12/01 01:14:47;;;;;;;40.50;20.65;;;;;;;;;;682823;28;1261;-69
2023/12/01 01:15:08;;;;;;;38.72;20.50;;;;;;;;;;683646;28;1351;-69
2023/12/01 01:15:28;;;;;;;37.37;19.77;;;;;;;;;;683737;28;1860;-69
2023/12/01 01:15:48;;;;;;;35.90;19.75;;;;;;;;;;681331;28;1137;-69
2023/12/01 01:16:10;;;;;;;34.13;19.77;;;;;;;;;;681950;28;1308;-69
2023/12/01 01:16:30;;;;;;;38.58;21.08;;;;;;;;;;684228;28;1267;-69
2023/12/01 01:16:50;;;;;;;40.03;20.20;;;;;;;;;;683422;28;4251;-69
2023/12/01 01:17:10;;;;;;;37.03;20.50;;;;;;;;;;684572;28;1140;-69
2023/12/01 01:17:33;;;;;;;38.93;19.93;;;;;;;;;;685490;28;1201;-69
2023/12/01 01:17:54;;;;;;;39.15;21.50;;;;;;;;;;683808;28;1026;-69
2023/12/01 01:18:15;;;;;;;41.60;22.43;;;;;;;;;;687684;28;1271;-69
2023/12/01 01:18:35;;;;;;;42.15;23.15;;;;;;;;;;686776;28;1248;-69
2023/12/01 01:18:55;;;;;;;43.70;25.07;;;;;;;;;;680505;28;1340;-69
2023/12/01 01:19:15;;;;;;;46.13;25.98;;;;;;;;;;685486;28;1236;-69
2023/12/01 01:19:36;;;;;;;50.37;28.90;;;;;;;;;;683612;28;4345;-69
2023/12/01 01:19:56;;;;;;;48.23;28.50;;;;;;;;;;680815;28;1278;-69
2023/12/01 01:20:16;;;;;;;48.10;27.50;;;;;;;;;;681558;28;1316;-69
2023/12/01 01:20:37;;;;;;;44.97;25.77;;;;;;;;;;680853;28;1280;-69
2023/12/01 01:20:57;;;;;;;49.97;27.95;;;;;;;;;;682662;28;1018;-69
2023/12/01 01:21:17;;;;;;;57.83;32.47;;;;;;;;;;681667;29;1343;-69
2023/12/01 01:21:38;;;;;;;58.60;33.90;;;;;;;;;;683054;28;1360;-68
2023/12/01 01:21:58;;;;;;;49.58;28.38;;;;;;;;;;682661;28;1094;-69
2023/12/01 01:22:18;;;;;;;49.73;28.33;;;;;;;;;;685311;28;1506;-69
2023/12/01 01:22:38;;;;;;;48.53;27.57;;;;;;;;;;688637;28;4453;-69
2023/12/01 01:22:59;;;;;;;40.45;23.30;;;;;;;;;;687907;28;1240;-69
2023/12/01 01:23:19;;;;;;;37.67;21.43;;;;;;;;;;686178;28;1229;-69
2023/12/01 01:23:40;;;;;;;39.00;21.47;;;;;;;;;;690816;28;869;-69
2023/12/01 01:24:00;;;;;;;40.15;21.92;;;;;;;;;;687460;28;1342;-69
2023/12/01 01:24:20;;;;;;;38.60;21.10;;;;;;;;;;689703;28;1247;-69
2023/12/01 01:24:41;;;;;;;37.88;20.80;;;;;;;;;;689696;28;1215;-69
2023/12/01 01:25:01;;;;;;;37.87;20.70;;;;;;;;;;685158;28;1276;-69
2023/12/01 01:25:21;;;;;;;41.15;22.02;;;;;;;;;;683917;28;1260;-69
2023/12/01 01:25:42;;;;;;;44.20;23.60;;;;;;;;;;683800;28;4358;-68
2023/12/01 01:26:02;;;;;;;44.13;24.33;;;;;;;;;;683275;28;1101;-69
2023/12/01 01:26:23;;;;;;;44.17;24.73;;;;;;;;;;684704;28;1280;-69
2023/12/01 01:26:43;;;;;;;41.70;22.70;;;;;;;;;;684452;28;1344;-69
2023/12/01 01:27:03;;;;;;;40.23;20.60;;;;;;;;;;683145;28;1204;-69
2023/12/01 01:27:24;;;;;;;38.73;20.57;;;;;;;;;;683490;28;1324;-69
2023/12/01 01:27:44;;;;;;;38.97;20.75;;;;;;;;;;681784;28;1422;-69
2023/12/01 01:28:04;;;;;;;39.97;21.87;;;;;;;;;;686184;28;1147;-69
2023/12/01 01:28:24;;;;;;;40.67;21.95;;;;;;;;;;686860;28;1238;-69
2023/12/01 01:28:45;;;;;;;39.73;21.40;;;;;;;;;;685491;28;4260;-69
2023/12/01 01:29:05;;;;;;;43.10;21.43;;;;;;;;;;686722;28;1565;-69
2023/12/01 01:29:25;;;;;;;40.67;21.27;;;;;;;;;;686367;28;1225;-69
2023/12/01 01:29:46;;;;;;;40.15;22.08;;;;;;;;;;686430;28;1506;-69
2023/12/01 01:30:06;;;;;;;40.47;22.47;;;;;;;;;;684063;28;1295;-69
2023/12/01 01:30:26;;;;;;;41.45;22.45;;;;;;;;;;683848;28;1382;-69
2023/12/01 01:30:47;;;;;;;41.47;22.00;;;;;;;;;;683767;28;1410;-69
2023/12/01 01:31:07;;;;;;;42.30;21.30;;;;;;;;;;687047;28;1169;-69
2023/12/01 01:31:28;;;;;;;39.00;22.10;;;;;;;;;;686372;28;1239;-69
2023/12/01 01:31:48;;;;;;;36.77;20.90;;;;;;;;;;686062;28;4319;-69
2023/12/01 01:32:08;;;;;;;38.28;20.73;;;;;;;;;;688225;28;2053;-69
2023/12/01 01:32:28;;;;;;;37.60;20.17;;;;;;;;;;687689;28;1565;-69
2023/12/01 01:32:49;;;;;;;40.17;20.90;;;;;;;;;;684989;28;1345;-69
2023/12/01 01:33:09;;;;;;;40.03;21.60;;;;;;;;;;685962;28;1312;-69
2023/12/01 01:33:30;;;;;;;40.33;20.93;;;;;;;;;;685644;28;1477;-69
2023/12/01 01:33:51;;;;;;;40.30;21.67;;;;;;;;;;685098;28;1117;-69
2023/12/01 01:34:11;;;;;;;41.00;21.77;;;;;;;;;;685959;28;1217;-69
2023/12/01 01:34:31;;;;;;;40.17;21.27;;;;;;;;;;686402;28;1029;-69
2023/12/01 01:34:51;;;;;;;39.80;20.98;;;;;;;;;;684690;28;4245;-69
2023/12/01 01:35:12;;;;;;;38.33;20.43;;;;;;;;;;686422;28;1232;-69
2023/12/01 01:35:32;;;;;;;40.63;21.47;;;;;;;;;;688918;28;1271;-69
2023/12/01 01:35:52;;;;;;;40.95;21.50;;;;;;;;;;686151;28;1349;-69
2023/12/01 01:36:13;;;;;;;39.23;21.47;;;;;;;;;;689622;28;1102;-70
2023/12/01 01:36:33;;;;;;;40.50;21.73;;;;;;;;;;689398;28;1211;-69
2023/12/01 01:36:55;;;;;;;38.93;20.83;;;;;;;;;;688890;28;938;-68
2023/12/01 01:37:15;;;;;;;37.55;20.67;;;;;;;;;;688781;28;1248;-69
2023/12/01 01:37:36;;;;;;;39.30;21.07;;;;;;;;;;688369;28;4362;-69
2023/12/01 01:37:56;;;;;;;40.85;20.58;;;;;;;;;;687340;28;1147;-69
2023/12/01 01:38:17;;;;;;;39.75;20.88;;;;;;;;;;689420;28;1337;-69
2023/12/01 01:38:37;;;;;;;39.57;22.13;;;;;;;;;;689407;28;1212;-69
2023/12/01 01:38:57;;;;;;;39.30;22.07;;;;;;;;;;689026;28;1162;-69
2023/12/01 01:39:18;;;;;;;38.92;21.85;;;;;;;;;;690508;28;838;-69
2023/12/01 01:39:38;;;;;;;41.10;22.10;;;;;;;;;;686513;28;1221;-69
2023/12/01 01:39:58;;;;;;;38.90;20.70;;;;;;;;;;685910;28;1033;-69
2023/12/01 01:40:18;;;;;;;39.70;20.85;;;;;;;;;;686061;28;1289;-69
2023/12/01 01:40:39;;;;;;;38.10;21.30;;;;;;;;;;685174;28;4436;-69
2023/12/01 01:40:59;;;;;;;41.50;22.70;;;;;;;;;;685491;28;1038;-69
2023/12/01 01:41:19;;;;;;;38.17;21.13;;;;;;;;;;689331;28;1279;-69
2023/12/01 01:41:39;;;;;;;38.00;20.33;;;;;;;;;;691072;28;1483;-69
2023/12/01 01:42:00;;;;;;;38.07;21.17;;;;;;;;;;690181;28;1194;-69
2023/12/01 01:42:21;;;;;;;40.75;22.35;;;;;;;;;;687193;28;1354;-70
2023/12/01 01:42:41;;;;;;;41.77;21.13;;;;;;;;;;689596;28;1973;-69
2023/12/01 01:43:02;;;;;;;39.03;21.07;;;;;;;;;;688329;28;1160;-69
2023/12/01 01:43:22;;;;;;;38.80;20.77;;;;;;;;;;688297;28;1223;-69
2023/12/01 01:43:42;;;;;;;38.97;20.30;;;;;;;;;;687080;28;4403;-69
2023/12/01 01:44:03;;;;;;;38.00;20.08;;;;;;;;;;687025;28;1201;-69
2023/12/01 01:44:23;;;;;;;38.00;20.20;;;;;;;;;;686605;28;1267;-69
2023/12/01 01:44:44;;;;;;;37.40;20.23;;;;;;;;;;686821;28;1241;-69
2023/12/01 01:45:04;;;;;;;38.30;21.13;;;;;;;;;;684723;28;1062;-69
2023/12/01 01:45:24;;;;;;;37.67;21.80;;;;;;;;;;683239;28;1454;-69
2023/12/01 01:45:45;;;;;;;40.00;21.93;;;;;;;;;;684279;28;1338;-69
2023/12/01 01:46:06;;;;;;;38.90;20.93;;;;;;;;;;682882;28;1170;-69
2023/12/01 01:46:26;;;;;;;39.53;21.08;;;;;;;;;;686935;28;1248;-69
2023/12/01 01:46:47;;;;;;;41.83;21.43;;;;;;;;;;682468;28;4384;-69
2023/12/01 01:47:07;;;;;;;38.72;21.00;;;;;;;;;;684271;28;1325;-69
2023/12/01 01:47:28;;;;;;;38.90;21.00;;;;;;;;;;684324;28;1679;-69
2023/12/01 01:47:49;;;;;;;40.67;21.17;;;;;;;;;;681893;28;1185;-69
2023/12/01 01:48:10;;;;;;;39.78;20.20;;;;;;;;;;682664;28;1067;-69
2023/12/01 01:48:30;;;;;;;38.75;20.63;;;;;;;;;;683383;28;1345;-69
2023/12/01 01:48:50;;;;;;;38.40;20.67;;;;;;;;;;685263;28;1018;-69
2023/12/01 01:49:11;;;;;;;37.38;20.35;;;;;;;;;;686719;28;1245;-68
2023/12/01 01:49:31;;;;;;;38.10;20.63;;;;;;;;;;688062;28;1227;-69
2023/12/01 01:49:51;;;;;;;37.53;20.20;;;;;;;;;;687805;28;4284;-69
2023/12/01 01:50:12;;;;;;;40.20;20.03;;;;;;;;;;686056;28;1379;-69
2023/12/01 01:50:32;;;;;;;36.53;19.10;;;;;;;;;;686779;28;1208;-69
2023/12/01 01:50:53;;;;;;;38.23;20.50;;;;;;;;;;685689;28;1290;-69
2023/12/01 01:51:13;;;;;;;37.30;20.87;;;;;;;;;;683849;28;1173;-68
2023/12/01 01:51:34;;;;;;;39.10;21.08;;;;;;;;;;684361;28;998;-70
2023/12/01 01:51:54;;;;;;;38.10;20.08;;;;;;;;;;683531;28;889;-69
2023/12/01 01:52:15;;;;;;;39.17;21.23;;;;;;;;;;686320;28;1172;-69
2023/12/01 01:52:35;;;;;;;36.28;20.10;;;;;;;;;;686861;28;5159;-69
2023/12/01 01:52:56;;;;;;;35.10;19.83;;;;;;;;;;688931;28;1100;-69
2023/12/01 01:53:16;;;;;;;37.72;20.65;;;;;;;;;;689008;28;1302;-69
2023/12/01 01:53:42;;;;;;;38.13;20.13;;;;;;;;;;689332;28;1386;-69
2023/12/01 01:54:03;;;;;;;35.17;20.30;;;;;;;;;;688695;28;1167;-69
2023/12/01 01:54:25;;;;;;;40.00;21.30;;;;;;;;;;689117;28;1275;-69
2023/12/01 01:54:45;;;;;;;45.15;24.13;;;;;;;;;;687081;28;1433;-69
2023/12/01 01:55:06;;;;;;;36.80;20.80;;;;;;;;;;685887;28;1474;-69
2023/12/01 01:55:26;;;;;;;37.20;20.50;;;;;;;;;;687812;28;1482;-69
2023/12/01 01:55:46;;;;;;;38.47;20.98;;;;;;;;;;689102;28;4222;-69
2023/12/01 01:56:07;;;;;;;37.53;20.53;;;;;;;;;;686795;28;1299;-69
2023/12/01 01:56:30;;;;;;;37.50;20.38;;;;;;;;;;686403;28;1418;-69
2023/12/01 01:56:54;;;;;;;36.63;20.45;;;;;;;;;;687558;28;1267;-69
2023/12/01 01:57:15;;;;;;;35.08;19.80;;;;;;;;;;689707;28;1243;-69
2023/12/01 01:57:40;;;;;;;38.03;20.63;;;;;;;;;;686562;28;1363;-68
2023/12/01 01:58:01;;;;;;;37.78;20.63;;;;;;;;;;684708;28;1589;-69
2023/12/01 01:58:22;;;;;;;41.25;22.67;;;;;;;;;;685139;28;1335;-69
2023/12/01 01:58:42;;;;;;;46.47;26.27;;;;;;;;;;685780;28;4246;-69
2023/12/01 01:59:02;;;;;;;54.00;29.37;;;;;;;;;;686876;28;1435;-69
2023/12/01 01:59:23;;;;;;;50.27;28.83;;;;;;;;;;686430;28;1324;-69
2023/12/01 01:59:44;;;;;;;46.60;25.93;;;;;;;;;;686734;28;1411;-69
2023/12/01 02:00:05;;;;;;;42.78;24.00;;;;;;;;;;681864;28;3880;-69
2023/12/01 02:00:32;;;;;;;41.90;23.25;;;;;;;;;;683435;28;1451;-69
2023/12/01 02:00:52;;;;;;;41.90;22.87;;;;;;;;;;678968;29;2325;-68
2023/12/01 02:01:14;;;;;;;41.63;23.17;;;;;;;;;;680314;28;1376;-68
2023/12/01 02:01:39;;;;;;;40.72;22.50;;;;;;;;;;680996;28;4493;-68
2023/12/01 02:01:59;;;;;;;42.42;22.88;;;;;;;;;;681352;28;2585;-68
2023/12/01 02:02:20;;;;;;;43.50;23.40;;;;;;;;;;684029;28;1556;-69
2023/12/01 02:02:40;;;;;;;42.25;22.75;;;;;;;;;;680930;29;1991;-68
2023/12/01 02:03:00;;;;;;;39.80;21.50;;;;;;;;;;679837;28;1772;-69
2023/12/01 02:03:21;;;;;;;40.27;21.63;;;;;;;;;;680287;28;1177;-69